sensor_id;sensor_type;location;lat;lon;timestamp;pressure;altitude;pressure_sealevel;temperature;humidity
27429;BME280;14881;48.092;11.574;2023-03-26T00:01:54;94991.63;;;7.46;100.00
27429;BME280;14881;48.092;11.574;2023-03-26T00:04:23;94993.53;;;7.45;100.00
27429;BME280;14881;48.092;11.574;2023-03-26T00:06:51;94984.56;;;7.50;100.00
27429;BME280;14881;48.092;11.574;2023-03-26T00:09:21;94976.72;;;7.53;100.00
27429;BME280;14881;48.092;11.574;2023-03-26T00:11:48;94976.44;;;7.55;100.00
27429;BME280;14881;48.092;11.574;2023-03-26T00:14:19;94984.22;;;7.61;100.00
27429;BME280;14881;48.092;11.574;2023-03-26T00:16:47;94986.41;;;7.59;100.00
27429;BME280;14881;48.092;11.574;2023-03-26T00:19:14;94978.00;;;7.61;100.00
27429;BME280;14881;48.092;11.574;2023-03-26T00:21:42;94980.47;;;7.57;100.00
27429;BME280;14881;48.092;11.574;2023-03-26T00:24:11;94969.16;;;7.50;100.00
27429;BME280;14881;48.092;11.574;2023-03-26T00:26:43;94962.22;;;7.44;100.00
27429;BME280;14881;48.092;11.574;2023-03-26T00:29:13;94976.56;;;7.40;100.00
27429;BME280;14881;48.092;11.574;2023-03-26T00:31:42;94977.22;;;7.26;100.00
27429;BME280;14881;48.092;11.574;2023-03-26T00:34:12;94976.69;;;7.24;100.00
27429;BME280;14881;48.092;11.574;2023-03-26T00:36:41;94975.34;;;7.22;100.00
27429;BME280;14881;48.092;11.574;2023-03-26T00:39:09;94967.97;;;7.32;100.00
27429;BME280;14881;48.092;11.574;2023-03-26T00:41:37;94969.13;;;7.21;100.00
27429;BME280;14881;48.092;11.574;2023-03-26T00:44:10;94967.00;;;7.18;100.00
27429;BME280;14881;48.092;11.574;2023-03-26T00:46:37;94966.75;;;7.15;100.00
27429;BME280;14881;48.092;11.574;2023-03-26T00:49:08;94957.84;;;7.14;100.00
27429;BME280;14881;48.092;11.574;2023-03-26T00:51:40;94950.28;;;7.11;100.00
27429;BME280;14881;48.092;11.574;2023-03-26T00:54:08;94954.13;;;7.05;100.00
27429;BME280;14881;48.092;11.574;2023-03-26T00:56:36;94958.75;;;6.99;100.00
27429;BME280;14881;48.092;11.574;2023-03-26T00:59:04;94958.31;;;6.87;100.00
27429;BME280;14881;48.092;11.574;2023-03-26T01:01:33;94957.50;;;6.87;100.00
27429;BME280;14881;48.092;11.574;2023-03-26T01:04:18;94965.84;;;6.90;100.00
27429;BME280;14881;48.092;11.574;2023-03-26T01:06:49;94964.16;;;6.99;100.00
27429;BME280;14881;48.092;11.574;2023-03-26T01:09:18;94958.81;;;6.89;100.00
27429;BME280;14881;48.092;11.574;2023-03-26T01:11:46;94954.47;;;6.93;100.00
27429;BME280;14881;48.092;11.574;2023-03-26T01:14:17;94958.31;;;6.82;100.00
27429;BME280;14881;48.092;11.574;2023-03-26T01:16:50;94962.13;;;6.76;100.00
27429;BME280;14881;48.092;11.574;2023-03-26T01:19:27;94958.38;;;6.72;100.00
27429;BME280;14881;48.092;11.574;2023-03-26T01:21:56;94960.84;;;6.69;100.00
27429;BME280;14881;48.092;11.574;2023-03-26T01:24:26;94961.91;;;6.73;100.00
27429;BME280;14881;48.092;11.574;2023-03-26T01:27:13;94960.56;;;6.70;100.00
27429;BME280;14881;48.092;11.574;2023-03-26T01:29:45;94954.88;;;6.72;100.00
27429;BME280;14881;48.092;11.574;2023-03-26T01:32:26;94960.31;;;6.67;100.00
27429;BME280;14881;48.092;11.574;2023-03-26T01:35:06;94952.47;;;6.70;100.00
27429;BME280;14881;48.092;11.574;2023-03-26T01:37:42;94953.03;;;6.62;100.00
27429;BME280;14881;48.092;11.574;2023-03-26T01:40:19;94943.56;;;6.64;100.00
27429;BME280;14881;48.092;11.574;2023-03-26T01:42:55;94945.47;;;6.64;100.00
27429;BME280;14881;48.092;11.574;2023-03-26T01:45:27;94940.59;;;6.66;100.00
27429;BME280;14881;48.092;11.574;2023-03-26T01:47:57;94939.53;;;6.67;100.00
27429;BME280;14881;48.092;11.574;2023-03-26T01:50:25;94938.72;;;6.61;100.00
27429;BME280;14881;48.092;11.574;2023-03-26T01:52:53;94931.25;;;6.53;100.00
27429;BME280;14881;48.092;11.574;2023-03-26T01:55:27;94930.44;;;6.48;100.00
27429;BME280;14881;48.092;11.574;2023-03-26T01:58:05;94939.63;;;6.47;100.00
27429;BME280;14881;48.092;11.574;2023-03-26T02:00:41;94941.03;;;6.39;100.00
27429;BME280;14881;48.092;11.574;2023-03-26T02:03:20;94928.91;;;6.37;100.00
27429;BME280;14881;48.092;11.574;2023-03-26T02:05:53;94920.72;;;6.52;100.00
27429;BME280;14881;48.092;11.574;2023-03-26T02:08:28;94919.91;;;6.51;100.00
27429;BME280;14881;48.092;11.574;2023-03-26T02:11:04;94920.19;;;6.50;100.00
27429;BME280;14881;48.092;11.574;2023-03-26T02:13:37;94915.03;;;6.53;100.00
27429;BME280;14881;48.092;11.574;2023-03-26T02:16:10;94912.91;;;6.50;100.00
27429;BME280;14881;48.092;11.574;2023-03-26T02:18:39;94908.81;;;6.58;100.00
27429;BME280;14881;48.092;11.574;2023-03-26T02:21:09;94907.69;;;6.64;100.00
27429;BME280;14881;48.092;11.574;2023-03-26T02:26:08;94907.16;;;6.62;100.00
27429;BME280;14881;48.092;11.574;2023-03-26T02:28:36;94907.41;;;6.66;100.00
27429;BME280;14881;48.092;11.574;2023-03-26T02:31:04;94901.75;;;6.62;100.00
27429;BME280;14881;48.092;11.574;2023-03-26T02:33:35;94904.72;;;6.60;100.00
27429;BME280;14881;48.092;11.574;2023-03-26T02:36:04;94899.88;;;6.62;100.00
27429;BME280;14881;48.092;11.574;2023-03-26T02:38:34;94899.28;;;6.71;100.00
27429;BME280;14881;48.092;11.574;2023-03-26T02:41:04;94891.94;;;6.76;100.00
27429;BME280;14881;48.092;11.574;2023-03-26T02:43:34;94884.16;;;6.75;100.00
27429;BME280;14881;48.092;11.574;2023-03-26T02:46:02;94891.72;;;6.73;100.00
27429;BME280;14881;48.092;11.574;2023-03-26T02:48:35;94890.09;;;6.72;100.00
27429;BME280;14881;48.092;11.574;2023-03-26T02:51:03;94882.53;;;6.74;100.00
27429;BME280;14881;48.092;11.574;2023-03-26T02:53:32;94878.53;;;6.66;100.00
27429;BME280;14881;48.092;11.574;2023-03-26T02:55:59;94875.56;;;6.68;100.00
27429;BME280;14881;48.092;11.574;2023-03-26T02:58:27;94874.47;;;6.69;100.00
27429;BME280;14881;48.092;11.574;2023-03-26T03:00:56;94874.75;;;6.67;100.00
27429;BME280;14881;48.092;11.574;2023-03-26T03:03:26;94872.88;;;6.62;100.00
27429;BME280;14881;48.092;11.574;2023-03-26T03:05:54;94859.88;;;6.70;100.00
27429;BME280;14881;48.092;11.574;2023-03-26T03:08:24;94853.66;;;6.74;100.00
27429;BME280;14881;48.092;11.574;2023-03-26T03:10:57;94849.63;;;6.72;100.00
27429;BME280;14881;48.092;11.574;2023-03-26T03:13:25;94845.56;;;6.74;100.00
27429;BME280;14881;48.092;11.574;2023-03-26T03:15:53;94841.00;;;6.70;100.00
27429;BME280;14881;48.092;11.574;2023-03-26T03:18:23;94836.41;;;6.70;100.00
27429;BME280;14881;48.092;11.574;2023-03-26T03:20:51;94830.97;;;6.75;100.00
27429;BME280;14881;48.092;11.574;2023-03-26T03:23:19;94825.84;;;6.74;100.00
27429;BME280;14881;48.092;11.574;2023-03-26T03:25:47;94825.88;;;6.69;100.00
27429;BME280;14881;48.092;11.574;2023-03-26T03:28:18;94820.78;;;6.62;100.00
27429;BME280;14881;48.092;11.574;2023-03-26T03:30:45;94812.78;;;6.52;100.00
27429;BME280;14881;48.092;11.574;2023-03-26T03:33:14;94813.63;;;6.47;100.00
27429;BME280;14881;48.092;11.574;2023-03-26T03:35:44;94824.16;;;6.44;100.00
27429;BME280;14881;48.092;11.574;2023-03-26T03:38:13;94826.63;;;6.40;100.00
27429;BME280;14881;48.092;11.574;2023-03-26T03:40:41;94820.94;;;6.42;100.00
27429;BME280;14881;48.092;11.574;2023-03-26T03:43:09;94829.03;;;6.42;100.00
27429;BME280;14881;48.092;11.574;2023-03-26T03:45:37;94820.72;;;6.38;100.00
27429;BME280;14881;48.092;11.574;2023-03-26T03:48:06;94811.03;;;6.32;100.00
27429;BME280;14881;48.092;11.574;2023-03-26T03:50:34;94811.34;;;6.25;100.00
27429;BME280;14881;48.092;11.574;2023-03-26T03:53:05;94816.28;;;6.13;100.00
27429;BME280;14881;48.092;11.574;2023-03-26T03:55:34;94816.28;;;6.08;100.00
27429;BME280;14881;48.092;11.574;2023-03-26T03:58:03;94821.16;;;6.06;100.00
27429;BME280;14881;48.092;11.574;2023-03-26T04:00:31;94816.28;;;6.13;100.00
27429;BME280;14881;48.092;11.574;2023-03-26T04:03:06;94807.63;;;6.16;100.00
27429;BME280;14881;48.092;11.574;2023-03-26T04:05:34;94814.38;;;6.19;100.00
27429;BME280;14881;48.092;11.574;2023-03-26T04:08:02;94803.06;;;6.12;100.00
27429;BME280;14881;48.092;11.574;2023-03-26T04:10:31;94798.56;;;6.02;100.00
27429;BME280;14881;48.092;11.574;2023-03-26T04:12:59;94794.28;;;5.91;100.00
27429;BME280;14881;48.092;11.574;2023-03-26T04:15:27;94799.19;;;5.74;100.00
27429;BME280;14881;48.092;11.574;2023-03-26T04:17:54;94797.38;;;5.59;100.00
27429;BME280;14881;48.092;11.574;2023-03-26T04:20:22;94804.97;;;5.42;100.00
27429;BME280;14881;48.092;11.574;2023-03-26T04:22:50;94797.22;;;5.30;100.00
27429;BME280;14881;48.092;11.574;2023-03-26T04:25:18;94788.88;;;5.21;100.00
27429;BME280;14881;48.092;11.574;2023-03-26T04:27:48;94796.97;;;5.11;100.00
27429;BME280;14881;48.092;11.574;2023-03-26T04:30:17;94787.56;;;5.04;100.00
27429;BME280;14881;48.092;11.574;2023-03-26T04:32:46;94793.53;;;5.01;100.00
27429;BME280;14881;48.092;11.574;2023-03-26T04:35:15;94795.94;;;4.97;100.00
27429;BME280;14881;48.092;11.574;2023-03-26T04:37:44;94800.50;;;4.97;100.00
27429;BME280;14881;48.092;11.574;2023-03-26T04:40:13;94790.03;;;4.95;100.00
27429;BME280;14881;48.092;11.574;2023-03-26T04:42:41;94784.09;;;4.93;100.00
27429;BME280;14881;48.092;11.574;2023-03-26T04:45:13;94780.06;;;4.90;100.00
27429;BME280;14881;48.092;11.574;2023-03-26T04:47:43;94769.56;;;4.89;100.00
27429;BME280;14881;48.092;11.574;2023-03-26T04:50:12;94770.66;;;4.93;100.00
27429;BME280;14881;48.092;11.574;2023-03-26T04:52:40;94768.50;;;4.95;100.00
27429;BME280;14881;48.092;11.574;2023-03-26T04:55:18;94766.06;;;4.94;100.00
27429;BME280;14881;48.092;11.574;2023-03-26T04:57:54;94764.72;;;4.91;100.00
27429;BME280;14881;48.092;11.574;2023-03-26T05:00:24;94768.22;;;4.92;100.00
27429;BME280;14881;48.092;11.574;2023-03-26T05:02:53;94765.53;;;4.86;100.00
27429;BME280;14881;48.092;11.574;2023-03-26T05:05:24;94761.53;;;4.79;100.00
27429;BME280;14881;48.092;11.574;2023-03-26T05:07:52;94762.59;;;4.78;100.00
27429;BME280;14881;48.092;11.574;2023-03-26T05:10:20;94758.28;;;4.77;100.00
27429;BME280;14881;48.092;11.574;2023-03-26T05:12:48;94751.56;;;4.74;100.00
27429;BME280;14881;48.092;11.574;2023-03-26T05:15:19;94749.69;;;4.75;100.00
27429;BME280;14881;48.092;11.574;2023-03-26T05:17:48;94738.94;;;4.75;100.00
27429;BME280;14881;48.092;11.574;2023-03-26T05:20:18;94735.69;;;4.73;100.00
27429;BME280;14881;48.092;11.574;2023-03-26T05:22:47;94731.13;;;4.73;100.00
27429;BME280;14881;48.092;11.574;2023-03-26T05:25:16;94731.13;;;4.73;100.00
27429;BME280;14881;48.092;11.574;2023-03-26T05:27:44;94735.69;;;4.73;100.00
27429;BME280;14881;48.092;11.574;2023-03-26T05:30:13;94724.94;;;4.73;100.00
27429;BME280;14881;48.092;11.574;2023-03-26T05:32:42;94720.63;;;4.77;100.00
27429;BME280;14881;48.092;11.574;2023-03-26T05:35:14;94734.63;;;4.84;100.00
27429;BME280;14881;48.092;11.574;2023-03-26T05:37:43;94734.03;;;4.97;100.00
27429;BME280;14881;48.092;11.574;2023-03-26T05:40:12;94734.25;;;5.16;100.00
27429;BME280;14881;48.092;11.574;2023-03-26T05:42:42;94728.00;;;5.36;100.00
27429;BME280;14881;48.092;11.574;2023-03-26T05:45:12;94719.56;;;5.52;100.00
27429;BME280;14881;48.092;11.574;2023-03-26T05:47:40;94722.69;;;5.70;100.00
27429;BME280;14881;48.092;11.574;2023-03-26T05:50:09;94711.28;;;5.83;100.00
27429;BME280;14881;48.092;11.574;2023-03-26T05:52:38;94704.78;;;5.94;100.00
27429;BME280;14881;48.092;11.574;2023-03-26T05:55:07;94698.25;;;6.05;100.00
27429;BME280;14881;48.092;11.574;2023-03-26T05:57:35;94687.09;;;6.17;100.00
27429;BME280;14881;48.092;11.574;2023-03-26T06:00:04;94679.16;;;6.31;100.00
27429;BME280;14881;48.092;11.574;2023-03-26T06:02:34;94687.34;;;6.49;100.00
27429;BME280;14881;48.092;11.574;2023-03-26T06:05:02;94668.94;;;6.56;100.00
27429;BME280;14881;48.092;11.574;2023-03-26T06:07:30;94671.28;;;6.63;100.00
27429;BME280;14881;48.092;11.574;2023-03-26T06:10:00;94661.22;;;6.74;100.00
27429;BME280;14881;48.092;11.574;2023-03-26T06:12:28;94658.38;;;6.84;100.00
27429;BME280;14881;48.092;11.574;2023-03-26T06:14:56;94653.19;;;6.92;100.00
27429;BME280;14881;48.092;11.574;2023-03-26T06:17:24;94659.53;;;7.02;100.00
27429;BME280;14881;48.092;11.574;2023-03-26T06:19:52;94654.53;;;7.14;100.00
27429;BME280;14881;48.092;11.574;2023-03-26T06:22:19;94650.72;;;7.15;100.00
27429;BME280;14881;48.092;11.574;2023-03-26T06:24:47;94655.84;;;7.16;100.00
27429;BME280;14881;48.092;11.574;2023-03-26T06:27:17;94652.00;;;7.22;100.00
27429;BME280;14881;48.092;11.574;2023-03-26T06:29:44;94644.03;;;7.31;100.00
27429;BME280;14881;48.092;11.574;2023-03-26T06:32:15;94649.63;;;7.40;100.00
27429;BME280;14881;48.092;11.574;2023-03-26T06:34:46;94648.22;;;7.42;100.00
27429;BME280;14881;48.092;11.574;2023-03-26T06:37:14;94647.13;;;7.43;100.00
27429;BME280;14881;48.092;11.574;2023-03-26T06:39:42;94634.91;;;7.46;100.00
27429;BME280;14881;48.092;11.574;2023-03-26T06:42:09;94633.63;;;7.43;100.00
27429;BME280;14881;48.092;11.574;2023-03-26T06:44:38;94620.31;;;7.47;100.00
27429;BME280;14881;48.092;11.574;2023-03-26T06:47:06;94631.56;;;7.54;100.00
27429;BME280;14881;48.092;11.574;2023-03-26T06:49:36;94639.16;;;7.52;100.00
27429;BME280;14881;48.092;11.574;2023-03-26T06:52:04;94622.38;;;7.55;100.00
27429;BME280;14881;48.092;11.574;2023-03-26T06:54:32;94633.94;;;7.60;100.00
27429;BME280;14881;48.092;11.574;2023-03-26T06:57:00;94630.19;;;7.56;100.00
27429;BME280;14881;48.092;11.574;2023-03-26T06:59:28;94631.66;;;7.67;100.00
27429;BME280;14881;48.092;11.574;2023-03-26T07:01:57;94631.34;;;7.69;100.00
27429;BME280;14881;48.092;11.574;2023-03-26T07:04:27;94630.78;;;7.72;100.00
27429;BME280;14881;48.092;11.574;2023-03-26T07:06:57;94627.63;;;7.65;100.00
27429;BME280;14881;48.092;11.574;2023-03-26T07:09:25;94629.63;;;7.59;100.00
27429;BME280;14881;48.092;11.574;2023-03-26T07:11:55;94621.41;;;7.46;100.00
27429;BME280;14881;48.092;11.574;2023-03-26T07:14:24;94619.50;;;7.46;100.00
27429;BME280;14881;48.092;11.574;2023-03-26T07:16:53;94623.13;;;7.42;100.00
27429;BME280;14881;48.092;11.574;2023-03-26T07:19:22;94620.53;;;7.31;100.00
27429;BME280;14881;48.092;11.574;2023-03-26T07:21:50;94619.00;;;7.25;100.00
27429;BME280;14881;48.092;11.574;2023-03-26T07:24:19;94622.91;;;7.14;100.00
27429;BME280;14881;48.092;11.574;2023-03-26T07:26:52;94608.31;;;7.15;100.00
27429;BME280;14881;48.092;11.574;2023-03-26T07:29:30;94602.19;;;7.10;100.00
27429;BME280;14881;48.092;11.574;2023-03-26T07:32:08;94588.53;;;7.01;100.00
27429;BME280;14881;48.092;11.574;2023-03-26T07:34:50;94577.25;;;6.94;100.00
27429;BME280;14881;48.092;11.574;2023-03-26T07:37:31;94569.03;;;6.85;100.00
27429;BME280;14881;48.092;11.574;2023-03-26T07:40:08;94555.81;;;6.84;100.00
27429;BME280;14881;48.092;11.574;2023-03-26T07:42:48;94558.75;;;6.87;100.00
27429;BME280;14881;48.092;11.574;2023-03-26T07:45:23;94537.66;;;6.89;100.00
27429;BME280;14881;48.092;11.574;2023-03-26T07:47:52;94537.38;;;6.91;100.00
27429;BME280;14881;48.092;11.574;2023-03-26T07:50:24;94538.66;;;6.93;100.00
27429;BME280;14881;48.092;11.574;2023-03-26T07:52:53;94529.47;;;6.94;100.00
27429;BME280;14881;48.092;11.574;2023-03-26T07:55:21;94539.41;;;6.99;100.00
27429;BME280;14881;48.092;11.574;2023-03-26T07:57:59;94537.16;;;7.06;100.00
27429;BME280;14881;48.092;11.574;2023-03-26T08:00:34;94534.31;;;7.16;100.00
27429;BME280;14881;48.092;11.574;2023-03-26T08:03:17;94529.06;;;7.25;100.00
27429;BME280;14881;48.092;11.574;2023-03-26T08:05:55;94511.09;;;7.34;100.00
27429;BME280;14881;48.092;11.574;2023-03-26T08:08:33;94508.25;;;7.44;100.00
27429;BME280;14881;48.092;11.574;2023-03-26T08:11:17;94509.97;;;7.54;100.00
27429;BME280;14881;48.092;11.574;2023-03-26T08:14:05;94494.81;;;7.72;100.00
27429;BME280;14881;48.092;11.574;2023-03-26T08:16:38;94489.63;;;7.75;100.00
27429;BME280;14881;48.092;11.574;2023-03-26T08:19:28;94489.13;;;7.87;100.00
27429;BME280;14881;48.092;11.574;2023-03-26T08:22:06;94477.50;;;7.86;100.00
27429;BME280;14881;48.092;11.574;2023-03-26T08:24:42;94490.38;;;7.94;100.00
27429;BME280;14881;48.092;11.574;2023-03-26T08:27:18;94490.44;;;7.89;100.00
27429;BME280;14881;48.092;11.574;2023-03-26T08:29:53;94479.44;;;7.99;100.00
27429;BME280;14881;48.092;11.574;2023-03-26T08:32:28;94470.94;;;8.06;100.00
27429;BME280;14881;48.092;11.574;2023-03-26T08:34:55;94475.53;;;8.06;100.00
27429;BME280;14881;48.092;11.574;2023-03-26T08:37:27;94475.16;;;8.12;100.00
27429;BME280;14881;48.092;11.574;2023-03-26T08:39:55;94484.66;;;8.10;100.00
27429;BME280;14881;48.092;11.574;2023-03-26T08:42:50;94473.25;;;8.13;100.00
27429;BME280;14881;48.092;11.574;2023-03-26T08:52:13;94481.53;;;8.02;100.00
27429;BME280;14881;48.092;11.574;2023-03-26T08:55:11;94484.03;;;7.85;100.00
27429;BME280;14881;48.092;11.574;2023-03-26T08:58:11;94475.22;;;7.93;100.00
27429;BME280;14881;48.092;11.574;2023-03-26T09:01:05;94464.94;;;7.95;100.00
27429;BME280;14881;48.092;11.574;2023-03-26T09:04:14;94465.00;;;7.90;100.00
27429;BME280;14881;48.092;11.574;2023-03-26T09:07:00;94471.00;;;7.87;100.00
27429;BME280;14881;48.092;11.574;2023-03-26T09:13:20;94462.75;;;7.65;100.00
27429;BME280;14881;48.092;11.574;2023-03-26T09:22:47;94451.81;;;7.56;100.00
27429;BME280;14881;48.092;11.574;2023-03-26T09:25:43;94439.50;;;7.64;100.00
27429;BME280;14881;48.092;11.574;2023-03-26T09:28:45;94429.63;;;7.73;100.00
27429;BME280;14881;48.092;11.574;2023-03-26T09:31:49;94421.91;;;7.80;100.00
27429;BME280;14881;48.092;11.574;2023-03-26T09:34:27;94418.63;;;7.83;100.00
27429;BME280;14881;48.092;11.574;2023-03-26T09:37:09;94423.22;;;7.83;100.00
27429;BME280;14881;48.092;11.574;2023-03-26T09:39:48;94441.63;;;7.67;100.00
27429;BME280;14881;48.092;11.574;2023-03-26T09:42:23;94434.00;;;7.55;100.00
27429;BME280;14881;48.092;11.574;2023-03-26T09:45:12;94439.28;;;7.47;100.00
27429;BME280;14881;48.092;11.574;2023-03-26T09:48:08;94443.47;;;7.39;100.00
27429;BME280;14881;48.092;11.574;2023-03-26T09:50:57;94441.88;;;7.38;100.00
27429;BME280;14881;48.092;11.574;2023-03-26T09:53:47;94419.97;;;7.40;100.00
27429;BME280;14881;48.092;11.574;2023-03-26T09:56:30;94423.97;;;7.42;100.00
27429;BME280;14881;48.092;11.574;2023-03-26T09:59:18;94440.34;;;7.32;100.00
27429;BME280;14881;48.092;11.574;2023-03-26T10:01:56;94432.41;;;7.22;100.00
27429;BME280;14881;48.092;11.574;2023-03-26T10:07:44;94419.25;;;7.48;100.00
27429;BME280;14881;48.092;11.574;2023-03-26T10:10:23;94410.50;;;7.56;100.00
27429;BME280;14881;48.092;11.574;2023-03-26T10:12:54;94407.34;;;7.49;100.00
27429;BME280;14881;48.092;11.574;2023-03-26T10:15:53;94391.84;;;7.41;100.00
27429;BME280;14881;48.092;11.574;2023-03-26T10:18:35;94394.13;;;7.47;100.00
27429;BME280;14881;48.092;11.574;2023-03-26T10:21:12;94400.94;;;7.45;100.00
27429;BME280;14881;48.092;11.574;2023-03-26T10:23:56;94407.94;;;7.46;100.00
27429;BME280;14881;48.092;11.574;2023-03-26T10:26:37;94402.44;;;7.37;100.00
27429;BME280;14881;48.092;11.574;2023-03-26T10:29:46;94411.19;;;7.29;100.00
27429;BME280;14881;48.092;11.574;2023-03-26T10:32:21;94412.38;;;7.42;100.00
27429;BME280;14881;48.092;11.574;2023-03-26T10:35:07;94421.28;;;7.42;100.00
27429;BME280;14881;48.092;11.574;2023-03-26T10:37:49;94423.47;;;7.40;100.00
27429;BME280;14881;48.092;11.574;2023-03-26T10:40:22;94435.88;;;7.41;100.00
27429;BME280;14881;48.092;11.574;2023-03-26T10:43:16;94428.91;;;7.21;100.00
27429;BME280;14881;48.092;11.574;2023-03-26T10:46:02;94444.53;;;7.24;100.00
27429;BME280;14881;48.092;11.574;2023-03-26T10:48:50;94441.16;;;7.14;100.00
27429;BME280;14881;48.092;11.574;2023-03-26T10:51:43;94438.63;;;7.04;100.00
27429;BME280;14881;48.092;11.574;2023-03-26T10:54:25;94427.91;;;6.98;100.00
27429;BME280;14881;48.092;11.574;2023-03-26T10:56:56;94421.94;;;7.02;100.00
27429;BME280;14881;48.092;11.574;2023-03-26T10:59:25;94420.66;;;7.13;100.00
27429;BME280;14881;48.092;11.574;2023-03-26T11:02:04;94412.78;;;7.16;100.00
27429;BME280;14881;48.092;11.574;2023-03-26T11:04:46;94398.47;;;7.16;100.00
27429;BME280;14881;48.092;11.574;2023-03-26T11:07:20;94393.94;;;7.11;100.00
27429;BME280;14881;48.092;11.574;2023-03-26T11:09:53;94393.56;;;7.18;100.00
27429;BME280;14881;48.092;11.574;2023-03-26T11:12:25;94403.78;;;7.21;100.00
27429;BME280;14881;48.092;11.574;2023-03-26T11:15:02;94395.63;;;7.26;100.00
27429;BME280;14881;48.092;11.574;2023-03-26T11:17:43;94392.00;;;7.30;100.00
27429;BME280;14881;48.092;11.574;2023-03-26T11:20:17;94390.91;;;7.31;100.00
27429;BME280;14881;48.092;11.574;2023-03-26T11:22:57;94375.72;;;7.36;100.00
27429;BME280;14881;48.092;11.574;2023-03-26T11:25:37;94394.00;;;7.25;100.00
27429;BME280;14881;48.092;11.574;2023-03-26T11:28:26;94403.78;;;7.21;100.00
27429;BME280;14881;48.092;11.574;2023-03-26T11:31:01;94388.09;;;7.23;100.00
27429;BME280;14881;48.092;11.574;2023-03-26T11:33:34;94391.97;;;7.17;100.00
27429;BME280;14881;48.092;11.574;2023-03-26T11:36:13;94404.09;;;7.19;100.00
27429;BME280;14881;48.092;11.574;2023-03-26T11:38:46;94403.28;;;7.19;100.00
27429;BME280;14881;48.092;11.574;2023-03-26T11:41:17;94397.91;;;7.00;100.00
27429;BME280;14881;48.092;11.574;2023-03-26T11:43:50;94392.75;;;6.85;100.00
27429;BME280;14881;48.092;11.574;2023-03-26T11:46:21;94385.81;;;6.79;100.00
27429;BME280;14881;48.092;11.574;2023-03-26T11:48:52;94395.47;;;6.66;100.00
27429;BME280;14881;48.092;11.574;2023-03-26T11:51:26;94391.69;;;6.67;100.00
27429;BME280;14881;48.092;11.574;2023-03-26T11:53:57;94392.41;;;6.73;100.00
27429;BME280;14881;48.092;11.574;2023-03-26T11:56:28;94392.31;;;6.78;100.00
27429;BME280;14881;48.092;11.574;2023-03-26T11:59:02;94389.03;;;6.81;100.00
27429;BME280;14881;48.092;11.574;2023-03-26T12:01:42;94381.66;;;6.86;100.00
27429;BME280;14881;48.092;11.574;2023-03-26T12:04:12;94383.50;;;6.91;100.00
27429;BME280;14881;48.092;11.574;2023-03-26T12:06:50;94391.19;;;6.97;100.00
27429;BME280;14881;48.092;11.574;2023-03-26T12:09:20;94353.31;;;7.03;100.00
27429;BME280;14881;48.092;11.574;2023-03-26T12:11:52;94360.38;;;7.31;100.00
27429;BME280;14881;48.092;11.574;2023-03-26T12:14:21;94349.59;;;7.45;100.00
27429;BME280;14881;48.092;11.574;2023-03-26T12:17:04;94351.91;;;7.51;100.00
27429;BME280;14881;48.092;11.574;2023-03-26T12:19:37;94355.34;;;7.84;100.00
27429;BME280;14881;48.092;11.574;2023-03-26T12:22:26;94347.22;;;8.12;100.00
27429;BME280;14881;48.092;11.574;2023-03-26T12:25:13;94347.41;;;8.15;100.00
27429;BME280;14881;48.092;11.574;2023-03-26T12:27:43;94345.28;;;8.26;100.00
27429;BME280;14881;48.092;11.574;2023-03-26T12:30:19;94343.88;;;8.28;100.00
27429;BME280;14881;48.092;11.574;2023-03-26T12:32:48;94341.19;;;8.28;100.00
27429;BME280;14881;48.092;11.574;2023-03-26T12:35:23;94335.88;;;8.37;100.00
27429;BME280;14881;48.092;11.574;2023-03-26T12:37:53;94331.56;;;8.22;100.00
27429;BME280;14881;48.092;11.574;2023-03-26T12:40:30;94325.34;;;8.22;100.00
27429;BME280;14881;48.092;11.574;2023-03-26T12:43:02;94330.88;;;8.30;100.00
27429;BME280;14881;48.092;11.574;2023-03-26T12:45:53;94310.91;;;8.40;100.00
27429;BME280;14881;48.092;11.574;2023-03-26T12:48:42;94316.72;;;8.47;100.00
27429;BME280;14881;48.092;11.574;2023-03-26T12:51:17;94325.94;;;8.46;100.00
27429;BME280;14881;48.092;11.574;2023-03-26T12:54:01;94314.38;;;8.54;100.00
27429;BME280;14881;48.092;11.574;2023-03-26T12:56:42;94303.28;;;8.42;100.00
27429;BME280;14881;48.092;11.574;2023-03-26T12:59:28;94302.78;;;8.40;100.00
27429;BME280;14881;48.092;11.574;2023-03-26T13:02:04;94295.06;;;8.47;100.00
27429;BME280;14881;48.092;11.574;2023-03-26T13:04:51;94296.22;;;8.55;100.00
27429;BME280;14881;48.092;11.574;2023-03-26T13:07:43;94307.66;;;8.52;100.00
27429;BME280;14881;48.092;11.574;2023-03-26T13:13:37;94304.94;;;8.65;100.00
27429;BME280;14881;48.092;11.574;2023-03-26T13:16:18;94295.44;;;8.54;100.00
27429;BME280;14881;48.092;11.574;2023-03-26T13:18:55;94279.75;;;8.65;100.00
27429;BME280;14881;48.092;11.574;2023-03-26T13:21:31;94292.59;;;8.59;100.00
27429;BME280;14881;48.092;11.574;2023-03-26T13:24:10;94293.09;;;8.61;100.00
27429;BME280;14881;48.092;11.574;2023-03-26T13:26:51;94285.03;;;8.70;100.00
27429;BME280;14881;48.092;11.574;2023-03-26T13:29:35;94296.34;;;8.72;100.00
27429;BME280;14881;48.092;11.574;2023-03-26T13:32:13;94302.06;;;8.70;100.00
27429;BME280;14881;48.092;11.574;2023-03-26T13:35:00;94295.25;;;8.73;100.00
27429;BME280;14881;48.092;11.574;2023-03-26T13:37:37;94304.19;;;8.73;100.00
27429;BME280;14881;48.092;11.574;2023-03-26T13:40:20;94303.13;;;8.83;100.00
27429;BME280;14881;48.092;11.574;2023-03-26T13:43:04;94296.28;;;8.86;100.00
27429;BME280;14881;48.092;11.574;2023-03-26T13:45:49;94287.38;;;8.85;100.00
27429;BME280;14881;48.092;11.574;2023-03-26T13:48:22;94283.00;;;8.76;100.00
27429;BME280;14881;48.092;11.574;2023-03-26T13:50:58;94275.31;;;8.69;100.00
27429;BME280;14881;48.092;11.574;2023-03-26T13:53:33;94280.41;;;8.70;100.00